Time;durP1;ratioP1;P1;durP2;ratioP2;P2;SDS_P1;SDS_P2;PMS_P1;PMS_P2;Temp;Humidity;BMP_temperature;BMP_pressure;BME280_temperature;BME280_humidity;BME280_pressure;Samples;Min_cycle;Max_cycle;Signal;HPM_P1;HPM_P2
2022/11/18 00:01:21;;;;;;;1.85;1.75;;;7.00;99.90;;;;;;4702529;30;20689;-83
2022/11/18 00:03:55;;;;;;;5.43;3.17;;;7.10;99.90;;;;;;4716523;30;20045;-83
2022/11/18 00:06:24;;;;;;;1.55;1.42;;;7.00;99.90;;;;;;4718111;30;20060;-83
2022/11/18 00:08:53;;;;;;;1.85;1.40;;;7.00;99.90;;;;;;4716724;30;20045;-83
2022/11/18 00:14:22;;;;;;;1.55;1.45;;;7.10;99.90;;;;;;4702482;30;20671;-83
2022/11/18 00:16:54;;;;;;;1.70;1.20;;;7.00;99.90;;;;;;4716376;30;20045;-82
2022/11/18 00:19:27;;;;;;;2.08;1.98;;;7.00;99.90;;;;;;4717452;30;20056;-83
2022/11/18 00:21:55;;;;;;;1.35;1.27;;;7.00;99.90;;;;;;4717697;30;20485;-83
2022/11/18 00:24:23;;;;;;;3.72;1.52;;;6.90;99.90;;;;;;4701837;30;20049;-83
2022/11/18 00:26:51;;;;;;;1.70;1.60;;;6.90;99.90;;;;;;4715929;30;20059;-83
2022/11/18 00:29:19;;;;;;;1.73;1.50;;;6.90;99.90;;;;;;4716452;30;20065;-83
2022/11/18 00:31:47;;;;;;;1.50;1.40;;;6.90;99.90;;;;;;4717376;30;20385;-83
2022/11/18 00:34:16;;;;;;;2.05;1.85;;;6.90;99.90;;;;;;4717692;30;20488;-83
2022/11/18 00:36:44;;;;;;;1.20;1.10;;;6.90;99.90;;;;;;4715442;30;20064;-83
2022/11/18 00:39:13;;;;;;;1.20;1.15;;;6.90;99.90;;;;;;4717299;30;20496;-83
2022/11/18 00:44:27;;;;;;;1.88;1.58;;;6.90;99.90;;;;;;4717105;30;20437;-83
2022/11/18 00:46:55;;;;;;;2.78;1.40;;;6.90;99.90;;;;;;4725420;30;20056;-83
2022/11/18 00:49:23;;;;;;;3.00;1.38;;;6.90;99.90;;;;;;4719409;30;20484;-83
2022/11/18 00:51:50;;;;;;;1.52;1.10;;;6.80;99.90;;;;;;4718934;30;20052;-83
2022/11/18 00:54:18;;;;;;;15.65;4.40;;;6.80;99.90;;;;;;4735262;30;20388;-83
2022/11/18 00:56:45;;;;;;;9.75;4.50;;;6.80;99.90;;;;;;4704169;30;20052;-83
2022/11/18 00:59:12;;;;;;;1.75;1.17;;;6.80;99.90;;;;;;4734179;30;20395;-83
2022/11/18 01:01:40;;;;;;;1.75;1.40;;;6.80;99.90;;;;;;4732588;30;20491;-83
2022/11/18 01:04:14;;;;;;;3.50;1.65;;;6.80;99.90;;;;;;4715613;30;20056;-84
2022/11/18 01:06:41;;;;;;;4.53;1.95;;;6.80;99.90;;;;;;4733700;30;20052;-83
2022/11/18 01:09:09;;;;;;;11.63;3.67;;;6.80;99.90;;;;;;4723731;30;20060;-83
2022/11/18 01:14:25;;;;;;;2.80;1.80;;;6.70;99.90;;;;;;4718886;30;20056;-83
2022/11/18 01:16:54;;;;;;;1.60;1.50;;;6.70;99.90;;;;;;4734018;30;20052;-84
2022/11/18 01:19:22;;;;;;;3.33;1.92;;;6.70;99.90;;;;;;4733172;30;20060;-84
2022/11/18 01:21:50;;;;;;;1.40;1.23;;;6.70;99.90;;;;;;4734909;30;20057;-84
2022/11/18 01:24:17;;;;;;;5.63;2.35;;;6.70;99.90;;;;;;4715459;30;20514;-84
2022/11/18 01:26:44;;;;;;;9.98;4.45;;;6.70;99.90;;;;;;4701524;30;20480;-84
2022/11/18 01:29:12;;;;;;;6.25;2.08;;;6.70;99.90;;;;;;4701085;30;20057;-84
2022/11/18 01:31:39;;;;;;;5.57;2.60;;;6.70;99.90;;;;;;4700886;30;20399;-84
2022/11/18 01:35:38;;;;;;;2.85;1.67;;;6.70;99.90;;;;;;4704153;30;20499;-84
2022/11/18 01:38:06;;;;;;;2.28;1.95;;;6.70;99.90;;;;;;4691268;30;20057;-84
2022/11/18 01:40:34;;;;;;;3.38;3.10;;;6.60;99.90;;;;;;4701056;30;20057;-84
2022/11/18 01:43:09;;;;;;;8.65;3.28;;;6.60;99.90;;;;;;4719980;30;20116;-85
2022/11/18 01:45:38;;;;;;;16.90;7.82;;;6.60;99.90;;;;;;4718774;30;20060;-84
2022/11/18 01:48:17;;;;;;;30.65;14.52;;;6.60;99.90;;;;;;4715836;30;20056;-84
2022/11/18 01:50:49;;;;;;;18.25;8.75;;;6.50;99.90;;;;;;4718996;30;20408;-84
2022/11/18 01:53:23;;;;;;;22.33;9.45;;;6.50;99.90;;;;;;4718612;30;20069;-84
2022/11/18 01:55:54;;;;;;;7.65;4.35;;;6.50;99.90;;;;;;4719849;30;20068;-84
2022/11/18 01:58:40;;;;;;;3.88;3.58;;;6.50;99.90;;;;;;4718966;30;20060;-84
2022/11/18 02:01:08;;;;;;;2.85;2.25;;;6.40;99.90;;;;;;4718677;30;20500;-84
2022/11/18 02:04:12;;;;;;;5.63;2.03;;;6.40;99.90;;;;;;4703611;30;20056;-84
2022/11/18 02:06:42;;;;;;;2.63;2.45;;;6.40;99.90;;;;;;4702429;30;20086;-85
2022/11/18 02:09:10;;;;;;;7.82;4.03;;;6.40;99.90;;;;;;4701172;30;20061;-84
2022/11/18 02:11:49;;;;;;;4.95;2.33;;;6.30;99.90;;;;;;4701069;30;20545;-85
2022/11/18 02:14:23;;;;;;;11.10;7.97;;;6.30;99.90;;;;;;4705675;30;20068;-84
2022/11/18 02:17:32;;;;;;;6.55;4.72;;;6.40;99.90;;;;;;4711814;30;20072;-84
2022/11/18 02:20:31;;;;;;;3.10;2.90;;;6.40;99.90;;;;;;4686518;30;20045;-85
2022/11/18 02:23:05;;;;;;;4.35;2.65;;;6.30;99.90;;;;;;4700981;30;20082;-85
2022/11/18 02:25:53;;;;;;;4.18;3.42;;;6.30;99.90;;;;;;4702444;30;20061;-84
2022/11/18 02:28:31;;;;;;;52.33;4.63;;;6.40;99.90;;;;;;4702054;30;20049;-84
2022/11/18 02:31:16;;;;;;;16.40;4.15;;;6.40;99.90;;;;;;4701942;30;20068;-84
2022/11/18 02:33:55;;;;;;;29.10;3.53;;;6.40;99.90;;;;;;4702097;30;20064;-85
2022/11/18 02:36:30;;;;;;;9.52;3.17;;;6.40;99.90;;;;;;4700588;30;20706;-84
2022/11/18 02:39:04;;;;;;;23.10;5.80;;;6.30;99.90;;;;;;4700607;30;20088;-85
2022/11/18 02:41:34;;;;;;;8.30;3.90;;;6.40;99.90;;;;;;4701484;30;20065;-84
2022/11/18 02:44:14;;;;;;;40.03;9.70;;;6.30;99.90;;;;;;4719031;30;20067;-85
2022/11/18 02:46:46;;;;;;;24.85;4.68;;;6.30;99.90;;;;;;4706377;30;20060;-84
2022/11/18 02:49:20;;;;;;;25.17;5.03;;;6.30;99.90;;;;;;4720093;30;20068;-84
2022/11/18 02:51:50;;;;;;;12.88;4.05;;;6.30;99.90;;;;;;4736477;30;20056;-84
2022/11/18 02:54:21;;;;;;;14.95;4.78;;;6.30;99.90;;;;;;4721103;30;20059;-84
2022/11/18 02:56:51;;;;;;;35.83;12.15;;;6.30;99.90;;;;;;4736220;30;20061;-84
2022/11/18 02:59:19;;;;;;;55.58;11.27;;;6.30;99.90;;;;;;4720510;30;20048;-84
2022/11/18 03:01:47;;;;;;;25.55;3.35;;;6.20;99.90;;;;;;4736799;30;20056;-84
2022/11/18 03:04:17;;;;;;;13.20;3.75;;;6.20;99.90;;;;;;4705637;30;20055;-84
2022/11/18 03:07:11;;;;;;;16.02;3.88;;;6.20;99.90;;;;;;4692067;30;20064;-85
2022/11/18 03:09:44;;;;;;;5.68;2.50;;;6.20;99.90;;;;;;4713889;30;20056;-85
2022/11/18 03:12:22;;;;;;;7.70;4.55;;;6.20;99.90;;;;;;4735705;30;20072;-83
2022/11/18 03:15:28;;;;;;;13.40;7.32;;;6.30;99.90;;;;;;4735936;30;20133;-84
2022/11/18 03:18:19;;;;;;;6.25;3.03;;;6.30;99.90;;;;;;4720548;30;20067;-84
2022/11/18 03:20:56;;;;;;;4.15;2.90;;;6.30;99.90;;;;;;4719911;30;20056;-84
2022/11/18 03:23:30;;;;;;;4.75;3.28;;;6.30;99.90;;;;;;4735713;30;20056;-84
2022/11/18 03:26:05;;;;;;;3.05;2.75;;;6.30;99.90;;;;;;4735122;30;20068;-84
2022/11/18 03:28:43;;;;;;;2.70;2.50;;;6.30;99.90;;;;;;4735834;30;20503;-84
2022/11/18 03:31:32;;;;;;;2.65;2.47;;;6.30;99.90;;;;;;4720110;30;20056;-84
2022/11/18 03:34:09;;;;;;;2.45;2.25;;;6.30;99.90;;;;;;4735732;30;20060;-84
2022/11/18 03:36:43;;;;;;;32.15;15.20;;;6.30;99.90;;;;;;4735633;30;20052;-84
2022/11/18 03:39:18;;;;;;;23.75;13.50;;;6.30;99.90;;;;;;4735559;30;20045;-84
2022/11/18 03:41:52;;;;;;;6.00;5.00;;;6.30;99.90;;;;;;4736000;30;20053;-82
2022/11/18 03:44:24;;;;;;;54.90;6.68;;;6.30;99.90;;;;;;4719558;30;20057;-84
2022/11/18 03:46:59;;;;;;;34.63;6.05;;;6.20;99.90;;;;;;4719131;30;20068;-84
2022/11/18 03:49:30;;;;;;;72.07;11.80;;;6.20;99.90;;;;;;4720093;30;20060;-84
2022/11/18 03:52:09;;;;;;;31.05;3.80;;;6.10;99.90;;;;;;4719946;30;20064;-84
2022/11/18 03:54:39;;;;;;;16.08;3.30;;;6.10;99.90;;;;;;4720136;30;20496;-84
2022/11/18 03:57:18;;;;;;;23.38;4.20;;;6.10;99.90;;;;;;4719656;30;20057;-84
2022/11/18 03:59:57;;;;;;;22.73;5.10;;;6.10;99.90;;;;;;4705001;30;20529;-84
2022/11/18 04:02:26;;;;;;;20.45;5.30;;;6.10;99.90;;;;;;4720098;30;20401;-84
2022/11/18 04:04:59;;;;;;;3.95;2.78;;;6.00;99.90;;;;;;4719086;30;20049;-84
2022/11/18 04:07:36;;;;;;;4.35;3.28;;;6.10;99.90;;;;;;4690689;30;20044;-84
2022/11/18 04:10:16;;;;;;;3.42;2.60;;;6.10;99.90;;;;;;4720119;30;20060;-84
2022/11/18 04:13:13;;;;;;;1.80;1.60;;;6.10;99.90;;;;;;4704634;30;20057;-85
2022/11/18 04:15:41;;;;;;;1.48;0.60;;;6.10;99.90;;;;;;4734896;30;20048;-84
2022/11/18 04:18:09;;;;;;;1.05;1.00;;;6.20;99.90;;;;;;4690770;30;20415;-84
2022/11/18 04:20:37;;;;;;;1.00;0.93;;;6.30;99.90;;;;;;4706255;30;20052;-84
2022/11/18 04:23:05;;;;;;;0.80;0.80;;;6.30;99.90;;;;;;4719141;30;20049;-86
2022/11/18 04:25:34;;;;;;;0.60;0.60;;;6.40;99.90;;;;;;4705009;30;20063;-86
2022/11/18 04:28:02;;;;;;;0.65;0.57;;;6.40;99.90;;;;;;4704136;30;20063;-85
2022/11/18 04:30:30;;;;;;;1.27;1.15;;;6.40;99.90;;;;;;4735119;30;20063;-86
2022/11/18 04:32:58;;;;;;;0.85;0.68;;;6.40;99.90;;;;;;4719115;30;20499;-86
2022/11/18 04:35:28;;;;;;;0.60;0.60;;;6.40;99.90;;;;;;4704255;30;20044;-87
2022/11/18 04:37:55;;;;;;;0.67;0.67;;;6.40;99.90;;;;;;4719265;30;20060;-87
2022/11/18 04:40:23;;;;;;;0.55;0.55;;;6.40;99.90;;;;;;4734768;30;20403;-86
2022/11/18 04:42:50;;;;;;;0.47;0.47;;;6.50;99.90;;;;;;4718798;30;20060;-87
2022/11/18 04:45:17;;;;;;;1.33;0.70;;;6.50;99.90;;;;;;4704714;30;20057;-87
2022/11/18 04:47:45;;;;;;;0.90;0.90;;;6.50;99.90;;;;;;4734203;30;20048;-89
2022/11/18 04:50:12;;;;;;;0.85;0.75;;;6.50;99.90;;;;;;4719424;30;20053;-89
2022/11/18 04:52:40;;;;;;;0.70;0.70;;;6.50;99.90;;;;;;4718697;30;20052;-87
2022/11/18 04:55:07;;;;;;;0.50;0.50;;;6.50;99.90;;;;;;4704104;30;20052;-87
2022/11/18 04:57:35;;;;;;;0.50;0.50;;;6.50;99.90;;;;;;4734560;30;20052;-88
2022/11/18 05:00:03;;;;;;;0.60;0.60;;;6.40;99.90;;;;;;4703854;30;20060;-87
2022/11/18 05:02:49;;;;;;;0.50;0.45;;;6.40;99.90;;;;;;4713765;30;20057;-89
2022/11/18 05:06:30;;;;;;;1.35;0.60;;;6.40;99.90;;;;;;4689510;30;20049;-88
2022/11/18 05:08:59;;;;;;;0.40;0.40;;;6.40;99.90;;;;;;4718699;30;20045;-87
2022/11/18 05:14:13;;;;;;;0.80;0.60;;;6.40;99.90;;;;;;4735078;30;20106;-88
2022/11/18 05:16:41;;;;;;;0.50;0.50;;;6.40;99.90;;;;;;4718546;30;20060;-88
2022/11/18 05:19:08;;;;;;;1.38;0.60;;;6.30;99.90;;;;;;4734414;30;20057;-87
2022/11/18 05:21:36;;;;;;;0.63;0.63;;;6.30;99.90;;;;;;4735127;30;20063;-87
2022/11/18 05:24:04;;;;;;;0.77;0.60;;;6.30;99.90;;;;;;4736324;30;20051;-88
2022/11/18 05:26:32;;;;;;;6.63;0.60;;;6.30;99.90;;;;;;4737764;30;20065;-88
2022/11/18 05:28:59;;;;;;;1.15;0.98;;;6.30;99.90;;;;;;4737913;30;20064;-88
2022/11/18 05:31:27;;;;;;;0.43;0.43;;;6.30;99.90;;;;;;4737754;30;20041;-87
2022/11/18 05:33:58;;;;;;;1.48;0.73;;;6.20;99.90;;;;;;4737969;30;20048;-87
2022/11/18 05:36:25;;;;;;;3.10;0.73;;;6.30;99.90;;;;;;4737821;30;20091;-88
2022/11/18 05:38:58;;;;;;;0.40;0.40;;;6.30;99.90;;;;;;4737891;30;20059;-87
2022/11/18 05:44:14;;;;;;;2.45;0.55;;;6.20;99.90;;;;;;4719940;30;20056;-88
2022/11/18 05:46:42;;;;;;;0.70;0.70;;;6.30;99.90;;;;;;4704749;30;20053;-87
2022/11/18 05:49:09;;;;;;;0.70;0.60;;;6.30;99.90;;;;;;4689896;30;20053;-87
2022/11/18 05:51:37;;;;;;;1.05;0.70;;;6.30;99.90;;;;;;4719762;30;20045;-87
2022/11/18 05:54:08;;;;;;;0.52;0.52;;;6.30;99.90;;;;;;4690472;30;20080;-83
2022/11/18 05:56:38;;;;;;;0.80;0.60;;;6.30;99.90;;;;;;4719387;30;20057;-86
2022/11/18 05:59:06;;;;;;;1.20;0.90;;;6.30;99.90;;;;;;4718330;30;20082;-86
2022/11/18 06:01:36;;;;;;;0.40;0.40;;;6.30;99.90;;;;;;4704677;30;20053;-86
2022/11/18 06:04:12;;;;;;;0.65;0.65;;;6.30;99.90;;;;;;4734565;30;20420;-85
2022/11/18 06:06:40;;;;;;;1.00;0.68;;;6.30;99.90;;;;;;4737669;30;20728;-86
2022/11/18 06:09:09;;;;;;;0.60;0.60;;;6.20;99.90;;;;;;4721700;30;20052;-86
2022/11/18 06:11:48;;;;;;;1.10;0.90;;;6.30;99.90;;;;;;4692621;30;20553;-86
2022/11/18 06:14:21;;;;;;;4.15;0.65;;;6.20;99.90;;;;;;4737232;30;20057;-87
2022/11/18 06:16:54;;;;;;;0.63;0.50;;;6.30;99.90;;;;;;4736724;30;20052;-87
2022/11/18 06:19:25;;;;;;;0.60;0.60;;;6.30;99.90;;;;;;4736588;30;20504;-86
2022/11/18 06:21:53;;;;;;;0.60;0.60;;;6.30;99.90;;;;;;4727535;30;20071;-86
2022/11/18 06:24:20;;;;;;;0.50;0.40;;;6.20;99.90;;;;;;4722905;30;20052;-87
2022/11/18 06:26:48;;;;;;;0.50;0.50;;;6.40;99.90;;;;;;4706072;30;20057;-86
2022/11/18 06:29:20;;;;;;;1.73;0.57;;;6.30;99.90;;;;;;4737010;30;20057;-85
2022/11/18 06:31:56;;;;;;;0.50;0.50;;;6.30;99.90;;;;;;4712438;30;20053;-88
2022/11/18 06:39:23;;;;;;;0.50;0.50;;;6.30;99.90;;;;;;4714802;30;20048;-91
2022/11/18 06:49:02;;;;;;;1.58;0.60;;;6.40;99.90;;;;;;4703160;30;20056;-90
2022/11/18 06:52:28;;;;;;;0.50;0.50;;;6.40;99.90;;;;;;4630221;30;20052;-89
2022/11/18 06:55:05;;;;;;;0.40;0.40;;;6.40;99.90;;;;;;4622441;31;20063;-91
2022/11/18 06:57:49;;;;;;;0.50;0.50;;;6.40;99.90;;;;;;4616398;31;20060;-91
2022/11/18 07:01:11;;;;;;;0.68;0.68;;;6.40;99.90;;;;;;4602767;31;20063;-94
2022/11/18 07:04:59;;;;;;;0.40;0.40;;;6.40;99.90;;;;;;4591371;31;20052;-90
2022/11/18 07:07:28;;;;;;;5.32;0.90;;;6.40;99.90;;;;;;4619439;31;21896;-89
2022/11/18 07:10:16;;;;;;;0.80;0.80;;;6.40;99.90;;;;;;4632241;31;20086;-89
2022/11/18 07:13:05;;;;;;;0.50;0.50;;;6.40;99.90;;;;;;4606946;31;20059;-90
2022/11/18 07:15:36;;;;;;;0.50;0.50;;;6.40;99.90;;;;;;4625493;30;20062;-88
2022/11/18 07:18:14;;;;;;;0.50;0.50;;;6.40;99.90;;;;;;4621453;30;20058;-92
2022/11/18 07:21:16;;;;;;;0.60;0.60;;;6.40;99.90;;;;;;4656034;30;20057;-88
2022/11/18 07:23:50;;;;;;;0.68;0.68;;;6.40;99.90;;;;;;4672940;30;20054;-89
2022/11/18 07:26:41;;;;;;;0.50;0.50;;;6.50;99.90;;;;;;4669771;30;20064;-91
2022/11/18 07:29:36;;;;;;;0.52;0.52;;;6.50;99.90;;;;;;4675372;30;20532;-90
2022/11/18 07:37:39;;;;;;;0.70;0.70;;;6.50;99.90;;;;;;4592202;31;20052;-92
2022/11/18 07:40:54;;;;;;;1.45;0.65;;;6.60;99.90;;;;;;4586875;31;20057;-93
2022/11/18 07:43:53;;;;;;;0.50;0.50;;;6.60;99.90;;;;;;4640314;30;20048;-93
2022/11/18 07:46:37;;;;;;;0.68;0.50;;;6.70;99.90;;;;;;4710620;30;20064;-91
2022/11/18 07:49:08;;;;;;;0.70;0.70;;;6.70;99.90;;;;;;4712154;30;20061;-83
2022/11/18 07:51:39;;;;;;;0.50;0.50;;;6.70;99.90;;;;;;4746647;30;20120;-91
2022/11/18 07:54:15;;;;;;;1.02;1.02;;;6.80;99.90;;;;;;4703591;30;20041;-90
2022/11/18 07:56:43;;;;;;;0.50;0.50;;;6.80;99.90;;;;;;4728688;30;20044;-90
2022/11/18 07:59:11;;;;;;;0.60;0.60;;;6.80;99.90;;;;;;4716022;30;20053;-89
2022/11/18 08:02:05;;;;;;;0.50;0.50;;;6.70;99.90;;;;;;4718034;30;20404;-90
2022/11/18 08:05:15;;;;;;;0.80;0.70;;;6.80;99.90;;;;;;4717578;30;20057;-89
2022/11/18 08:07:44;;;;;;;0.73;0.70;;;6.80;99.90;;;;;;4707981;30;20060;-87
2022/11/18 08:10:15;;;;;;;1.65;1.27;;;6.80;99.90;;;;;;4723246;30;20063;-86
2022/11/18 08:12:43;;;;;;;1.25;1.15;;;6.90;99.90;;;;;;4722313;30;20416;-88
2022/11/18 08:15:20;;;;;;;0.95;0.60;;;6.90;99.90;;;;;;4725147;30;20048;-91
2022/11/18 08:18:00;;;;;;;0.88;0.88;;;6.90;99.90;;;;;;4720149;30;20052;-86
2022/11/18 08:21:15;;;;;;;1.48;1.05;;;6.90;99.90;;;;;;4723611;30;20053;-89
2022/11/18 08:25:13;;;;;;;0.50;0.50;;;6.90;99.90;;;;;;4666686;30;20516;-88
2022/11/18 08:29:10;;;;;;;0.70;0.70;;;6.90;99.90;;;;;;4616405;30;20055;-88
2022/11/18 08:32:04;;;;;;;1.10;0.63;;;6.90;99.90;;;;;;4626181;30;20058;-89
2022/11/18 08:40:29;;;;;;;1.23;1.23;;;7.00;99.90;;;;;;4711080;30;20700;-89
2022/11/18 08:43:15;;;;;;;1.00;1.00;;;7.10;99.90;;;;;;4707502;30;20497;-88
2022/11/18 08:45:48;;;;;;;0.60;0.60;;;7.20;99.90;;;;;;4737931;30;20064;-89
2022/11/18 08:48:16;;;;;;;0.60;0.60;;;7.20;99.90;;;;;;4734135;30;20060;-89
2022/11/18 08:51:00;;;;;;;0.50;0.50;;;7.20;99.90;;;;;;4734339;30;20056;-88
2022/11/18 08:53:28;;;;;;;1.58;1.48;;;7.20;99.90;;;;;;4689580;30;20063;-88
2022/11/18 08:56:07;;;;;;;0.82;0.50;;;7.20;99.90;;;;;;4734396;30;20059;-88
2022/11/18 08:59:15;;;;;;;;;;;;;;;;;;;;;
2022/11/18 09:02:45;;;;;;;1.75;1.02;;;7.10;99.90;;;;;;4693195;30;20057;-90
2022/11/18 09:26:31;;;;;;;0.60;0.60;;;6.80;99.90;;;;;;4612689;31;20047;-88
2022/11/18 09:30:03;;;;;;;0.70;0.60;;;6.70;99.90;;;;;;4593442;31;20055;-89
2022/11/18 09:32:37;;;;;;;1.02;1.02;;;6.70;99.90;;;;;;4602193;30;20525;-88
2022/11/18 09:35:43;;;;;;;0.80;0.80;;;6.60;99.90;;;;;;4667346;30;20061;-89
2022/11/18 09:38:15;;;;;;;0.70;0.70;;;6.60;99.90;;;;;;4700819;30;20060;-88
2022/11/18 09:41:20;;;;;;;1.40;0.98;;;6.60;99.90;;;;;;4701622;30;20053;-88
2022/11/18 09:44:04;;;;;;;0.90;0.90;;;6.50;99.90;;;;;;4683637;30;20049;-88
2022/11/18 09:50:33;;;;;;;;;;;;;;;;;;;;;
2022/11/18 09:58:54;;;;;;;3.88;1.17;;;6.40;99.90;;;;;;4734033;30;20048;-88
2022/11/18 10:01:22;;;;;;;1.27;1.02;;;6.50;99.90;;;;;;4731922;30;20067;-88
2022/11/18 10:10:14;;;;;;;1.08;1.00;;;6.50;99.90;;;;;;4699107;30;20056;-87
2022/11/18 10:14:00;;;;;;;1.33;0.95;;;6.50;99.90;;;;;;4710995;30;20053;-88
2022/11/18 10:17:23;;;;;;;0.82;0.82;;;6.50;99.90;;;;;;4682071;30;20191;-88
2022/11/18 10:20:40;;;;;;;0.85;0.85;;;6.50;99.90;;;;;;4667265;30;20046;-89
2022/11/18 10:24:00;;;;;;;1.20;1.00;;;6.50;99.90;;;;;;4633974;30;20061;-89
2022/11/18 10:27:20;;;;;;;1.20;1.10;;;6.50;99.90;;;;;;4648953;30;20426;-87
2022/11/18 10:30:22;;;;;;;1.42;0.98;;;6.40;99.90;;;;;;4651928;30;20497;-88
2022/11/18 10:33:32;;;;;;;0.80;0.80;;;6.40;99.90;;;;;;4651471;30;20061;-86
2022/11/18 10:36:29;;;;;;;0.90;0.90;;;6.50;99.90;;;;;;4663044;30;20068;-86
2022/11/18 10:39:12;;;;;;;0.75;0.75;;;6.40;99.90;;;;;;4665063;30;20428;-87
2022/11/18 10:41:51;;;;;;;0.60;0.60;;;6.50;99.90;;;;;;4651936;30;20059;-89
2022/11/18 10:44:28;;;;;;;2.65;2.55;;;6.50;99.90;;;;;;4637299;30;20501;-89
2022/11/18 10:47:27;;;;;;;0.75;0.75;;;6.40;99.90;;;;;;4651224;30;20054;-87
2022/11/18 10:49:57;;;;;;;0.80;0.80;;;6.40;99.90;;;;;;4637172;30;20409;-88
2022/11/18 10:52:25;;;;;;;0.60;0.60;;;6.40;99.90;;;;;;4672172;30;20053;-87
2022/11/18 10:55:15;;;;;;;0.65;0.65;;;6.40;99.90;;;;;;4681279;30;20499;-88
2022/11/18 10:57:53;;;;;;;0.52;0.52;;;6.50;99.90;;;;;;4736571;30;20056;-89
2022/11/18 11:00:43;;;;;;;0.77;0.77;;;6.50;99.90;;;;;;4736170;30;20063;-89
2022/11/18 11:03:19;;;;;;;0.50;0.50;;;6.50;99.90;;;;;;4720972;30;20052;-88
2022/11/18 11:05:47;;;;;;;2.42;0.80;;;6.50;99.90;;;;;;4720242;30;20064;-87
2022/11/18 11:08:21;;;;;;;0.77;0.77;;;6.50;99.90;;;;;;4705614;30;20071;-89
2022/11/18 11:11:48;;;;;;;;;;;;;;;;;;;;;
2022/11/18 11:14:41;;;;;;;2.67;0.90;;;6.40;99.90;;;;;;4736111;30;20045;-83
2022/11/18 11:17:43;;;;;;;1.23;1.13;;;6.40;99.90;;;;;;4735383;30;20065;-91
2022/11/18 11:20:17;;;;;;;;;;;6.30;99.90;;;;;;4702487;30;20057;-86
2022/11/18 11:22:45;;;;;;;0.70;0.70;;;6.30;99.90;;;;;;4702523;30;20724;-86
2022/11/18 11:25:14;;;;;;;0.70;0.70;;;6.30;99.90;;;;;;4688016;30;20045;-86
2022/11/18 11:28:06;;;;;;;0.70;0.70;;;6.20;99.90;;;;;;4702830;30;20056;-83
2022/11/18 11:31:11;;;;;;;0.50;0.50;;;6.20;99.90;;;;;;4721518;30;20056;-87
2022/11/18 11:34:24;;;;;;;0.88;0.82;;;6.00;99.90;;;;;;4703793;30;20064;-84
2022/11/18 11:37:04;;;;;;;0.55;0.55;;;5.90;99.90;;;;;;4687815;30;20071;-87
2022/11/18 11:39:59;;;;;;;0.63;0.63;;;5.90;99.90;;;;;;4689352;30;20064;-84
2022/11/18 11:42:48;;;;;;;0.60;0.60;;;5.90;99.90;;;;;;4710342;30;20064;-84
2022/11/18 11:45:18;;;;;;;0.80;0.80;;;6.00;99.90;;;;;;4719541;30;20404;-86
2022/11/18 11:48:12;;;;;;;0.80;0.80;;;6.00;99.90;;;;;;4690764;30;20060;-86
2022/11/18 11:50:59;;;;;;;1.25;1.15;;;6.10;99.90;;;;;;4705522;30;20570;-86
2022/11/18 11:54:09;;;;;;;0.70;0.70;;;6.10;99.90;;;;;;4721684;30;20049;-88
2022/11/18 11:56:43;;;;;;;0.80;0.80;;;6.20;99.90;;;;;;4700832;30;20059;-85
2022/11/18 11:59:17;;;;;;;1.40;0.60;;;6.30;99.90;;;;;;4687510;30;20049;-86
2022/11/18 12:02:22;;;;;;;0.60;0.60;;;6.30;99.90;;;;;;4688143;30;20408;-86
2022/11/18 12:05:35;;;;;;;0.63;0.63;;;6.30;99.90;;;;;;4702151;30;20049;-88
2022/11/18 12:08:10;;;;;;;0.70;0.70;;;6.30;99.90;;;;;;4701703;30;20057;-86
2022/11/18 12:10:52;;;;;;;0.60;0.60;;;6.30;99.90;;;;;;4687918;30;20056;-86
2022/11/18 12:13:46;;;;;;;0.60;0.60;;;6.30;99.90;;;;;;4627371;30;20436;-86
2022/11/18 12:16:24;;;;;;;0.88;0.88;;;6.20;99.90;;;;;;4649454;30;20054;-84
2022/11/18 12:19:00;;;;;;;0.57;0.57;;;6.30;99.90;;;;;;4649012;30;20517;-85
2022/11/18 12:21:45;;;;;;;2.00;0.80;;;6.10;99.90;;;;;;4674905;30;20139;-84
2022/11/18 12:24:33;;;;;;;0.80;0.80;;;6.20;99.90;;;;;;4652313;30;20144;-90
2022/11/18 12:27:04;;;;;;;0.70;0.70;;;6.20;99.90;;;;;;4652034;30;20061;-84
2022/11/18 12:29:50;;;;;;;0.70;0.70;;;6.20;99.90;;;;;;4666829;30;20058;-85
2022/11/18 12:32:45;;;;;;;0.90;0.90;;;6.20;99.90;;;;;;4666039;30;20445;-85
2022/11/18 12:35:27;;;;;;;0.80;0.80;;;6.20;99.90;;;;;;4666152;30;20757;-84
2022/11/18 12:37:54;;;;;;;0.85;0.80;;;6.20;99.90;;;;;;4680842;30;20066;-88
2022/11/18 12:40:42;;;;;;;0.68;0.68;;;6.20;99.90;;;;;;4652313;30;20054;-86
2022/11/18 12:46:36;;;;;;;0.70;0.70;;;6.20;99.90;;;;;;4717338;30;20060;-85
2022/11/18 12:49:25;;;;;;;3.08;0.85;;;6.20;99.90;;;;;;4694274;30;20057;-86
2022/11/18 12:51:56;;;;;;;0.60;0.60;;;6.20;99.90;;;;;;4730063;30;20052;-86
2022/11/18 12:54:39;;;;;;;0.93;0.93;;;6.20;99.90;;;;;;4709687;30;20523;-85
2022/11/18 12:57:57;;;;;;;2.92;1.98;;;6.20;99.90;;;;;;4645550;30;20073;-85
2022/11/18 13:00:50;;;;;;;1.27;0.93;;;6.20;99.90;;;;;;4673285;30;20057;-87
2022/11/18 13:03:27;;;;;;;1.77;0.82;;;6.10;99.90;;;;;;4653787;30;20058;-85
2022/11/18 13:06:01;;;;;;;1.00;0.90;;;6.10;99.90;;;;;;4680679;30;20515;-86
2022/11/18 13:08:29;;;;;;;1.98;1.88;;;6.10;99.90;;;;;;4665808;30;20054;-84
2022/11/18 13:19:35;;;;;;;0.60;0.60;;;6.00;99.90;;;;;;4734036;30;20061;-85
2022/11/18 13:24:51;;;;;;;0.63;0.63;;;6.00;99.90;;;;;;4718585;30;20064;-84
2022/11/18 13:27:48;;;;;;;2.17;0.85;;;5.90;99.90;;;;;;4734145;30;20052;-84
2022/11/18 13:30:22;;;;;;;0.57;0.57;;;5.90;99.90;;;;;;4702753;30;20063;-85
2022/11/18 13:32:52;;;;;;;0.50;0.50;;;5.80;99.90;;;;;;4687312;30;20057;-83
2022/11/18 13:35:26;;;;;;;2.00;0.40;;;5.80;99.90;;;;;;4715081;30;20053;-85
2022/11/18 13:38:00;;;;;;;0.93;0.70;;;5.70;99.90;;;;;;4701309;30;20070;-85
2022/11/18 13:40:36;;;;;;;0.50;0.50;;;5.70;99.90;;;;;;4715699;30;20086;-83
2022/11/18 13:43:04;;;;;;;0.60;0.60;;;5.60;99.90;;;;;;4728314;30;20056;-84
2022/11/18 13:45:32;;;;;;;0.50;0.50;;;5.60;99.90;;;;;;4721035;30;20056;-85
2022/11/18 13:48:13;;;;;;;0.50;0.50;;;5.50;99.90;;;;;;4721620;30;20483;-84
2022/11/18 13:50:50;;;;;;;0.73;0.73;;;5.50;99.90;;;;;;4737720;30;20052;-85
2022/11/18 13:53:20;;;;;;;0.70;0.70;;;5.50;99.90;;;;;;4721297;30;20056;-84
2022/11/18 13:56:00;;;;;;;0.60;0.60;;;5.50;99.90;;;;;;4737485;30;20056;-84
2022/11/18 13:58:39;;;;;;;1.63;0.82;;;5.40;99.90;;;;;;4721864;30;20063;-84
2022/11/18 14:01:27;;;;;;;0.60;0.60;;;5.40;99.90;;;;;;4721426;30;20068;-83
2022/11/18 14:04:08;;;;;;;0.50;0.50;;;5.40;99.90;;;;;;4736760;30;20049;-85
2022/11/18 14:06:40;;;;;;;0.80;0.80;;;5.30;99.90;;;;;;4737733;30;20068;-86
2022/11/18 14:09:23;;;;;;;0.50;0.50;;;5.30;99.90;;;;;;4721609;30;20403;-83
2022/11/18 14:12:00;;;;;;;0.50;0.50;;;5.20;99.90;;;;;;4737303;30;20053;-83
2022/11/18 14:14:38;;;;;;;0.60;0.60;;;5.20;99.90;;;;;;4707257;30;20056;-84
2022/11/18 14:17:26;;;;;;;0.60;0.60;;;5.20;99.90;;;;;;4736795;30;20056;-83
2022/11/18 14:19:56;;;;;;;0.60;0.60;;;5.20;99.90;;;;;;4721093;30;20045;-83
2022/11/18 14:22:26;;;;;;;0.50;0.50;;;5.10;99.90;;;;;;4720196;30;20049;-83
2022/11/18 14:25:14;;;;;;;0.50;0.50;;;5.10;99.90;;;;;;4719205;30;20049;-84
2022/11/18 14:27:44;;;;;;;0.57;0.57;;;5.10;99.90;;;;;;4718845;30;20045;-84
2022/11/18 14:30:35;;;;;;;1.80;0.67;;;5.10;99.90;;;;;;4719775;30;20053;-84
2022/11/18 14:33:23;;;;;;;0.73;0.70;;;5.10;99.90;;;;;;4719255;30;21154;-83
2022/11/18 14:35:52;;;;;;;0.75;0.75;;;5.10;99.90;;;;;;4719046;30;20045;-84
2022/11/18 14:38:24;;;;;;;0.60;0.60;;;5.00;99.90;;;;;;4719620;30;20052;-83
2022/11/18 14:41:14;;;;;;;0.73;0.73;;;5.00;99.90;;;;;;4719035;30;20068;-84
2022/11/18 14:43:44;;;;;;;0.73;0.73;;;5.10;99.90;;;;;;4719230;30;20048;-84
2022/11/18 14:46:15;;;;;;;0.70;0.70;;;5.10;99.90;;;;;;4719312;30;20068;-84
2022/11/18 14:48:44;;;;;;;0.50;0.50;;;5.10;99.90;;;;;;4718528;30;20064;-84
2022/11/18 14:51:13;;;;;;;0.85;0.85;;;5.10;99.90;;;;;;4703588;30;20396;-84
2022/11/18 14:53:42;;;;;;;0.70;0.70;;;5.00;99.90;;;;;;4729753;30;20060;-84
2022/11/18 14:56:21;;;;;;;0.75;0.75;;;5.10;99.90;;;;;;4735975;30;20065;-84
2022/11/18 14:58:48;;;;;;;1.92;0.80;;;5.10;99.90;;;;;;4736629;30;20064;-84
2022/11/18 15:01:16;;;;;;;0.80;0.80;;;5.10;99.90;;;;;;4706634;30;20468;-84
2022/11/18 15:03:43;;;;;;;0.93;0.93;;;5.10;99.90;;;;;;4735876;30;20064;-83
2022/11/18 15:06:18;;;;;;;0.95;0.90;;;5.10;99.90;;;;;;4720761;30;20048;-87
2022/11/18 15:08:48;;;;;;;3.17;1.00;;;5.20;99.90;;;;;;4705962;30;20049;-88
2022/11/18 15:11:15;;;;;;;1.45;1.35;;;5.20;99.90;;;;;;4691351;30;20049;-87
2022/11/18 15:13:43;;;;;;;2.75;1.60;;;5.20;99.90;;;;;;4721410;30;20060;-87
2022/11/18 15:16:11;;;;;;;1.00;1.00;;;5.30;99.90;;;;;;4719624;30;20049;-87
2022/11/18 15:19:04;;;;;;;3.55;1.50;;;5.30;99.90;;;;;;4729986;30;20060;-87
2022/11/18 15:22:04;;;;;;;1.58;1.30;;;5.30;99.90;;;;;;4735836;30;20484;-88
2022/11/18 15:24:45;;;;;;;5.32;1.85;;;5.40;99.90;;;;;;4712051;30;20052;-88
2022/11/18 15:27:13;;;;;;;1.47;1.37;;;5.40;99.90;;;;;;4734398;30;20056;-85
2022/11/18 15:29:49;;;;;;;1.48;1.35;;;5.50;99.90;;;;;;4736505;30;20307;-86
2022/11/18 15:32:32;;;;;;;1.42;1.20;;;5.50;99.90;;;;;;4720670;30;20041;-88
2022/11/18 15:36:16;;;;;;;1.45;1.35;;;5.50;99.90;;;;;;4733323;30;20053;-87